sensor_id;sensor_type;location;lat;lon;timestamp;pressure;altitude;pressure_sealevel;temperature;humidity
36828;BME280;22766;48.042;11.192;2023-03-04T00:02:12;95344.84;;;-2.92;100.00
36828;BME280;22766;48.042;11.192;2023-03-04T00:04:39;95344.09;;;-2.94;100.00
36828;BME280;22766;48.042;11.192;2023-03-04T00:07:05;95346.00;;;-2.99;100.00
36828;BME280;22766;48.042;11.192;2023-03-04T00:09:32;95347.44;;;-2.94;100.00
36828;BME280;22766;48.042;11.192;2023-03-04T00:11:59;95352.19;;;-2.86;100.00
36828;BME280;22766;48.042;11.192;2023-03-04T00:14:25;95352.13;;;-2.85;100.00
36828;BME280;22766;48.042;11.192;2023-03-04T00:16:55;95351.94;;;-2.80;100.00
36828;BME280;22766;48.042;11.192;2023-03-04T00:19:22;95349.84;;;-2.70;100.00
36828;BME280;22766;48.042;11.192;2023-03-04T00:21:49;95348.25;;;-2.53;100.00
36828;BME280;22766;48.042;11.192;2023-03-04T00:24:16;95354.66;;;-2.46;100.00
36828;BME280;22766;48.042;11.192;2023-03-04T00:26:42;95353.56;;;-2.40;100.00
36828;BME280;22766;48.042;11.192;2023-03-04T00:29:09;95362.59;;;-2.35;100.00
36828;BME280;22766;48.042;11.192;2023-03-04T00:31:36;95363.84;;;-2.25;100.00
36828;BME280;22766;48.042;11.192;2023-03-04T00:34:03;95367.06;;;-2.21;100.00
36828;BME280;22766;48.042;11.192;2023-03-04T00:36:30;95363.44;;;-2.16;100.00
36828;BME280;22766;48.042;11.192;2023-03-04T00:38:56;95355.34;;;-2.05;100.00
36828;BME280;22766;48.042;11.192;2023-03-04T00:41:23;95353.47;;;-2.00;100.00
36828;BME280;22766;48.042;11.192;2023-03-04T00:43:50;95360.69;;;-1.93;100.00
36828;BME280;22766;48.042;11.192;2023-03-04T00:46:17;95360.47;;;-1.88;100.00
36828;BME280;22766;48.042;11.192;2023-03-04T00:48:44;95356.16;;;-1.86;100.00
36828;BME280;22766;48.042;11.192;2023-03-04T00:51:10;95352.75;;;-1.85;100.00
36828;BME280;22766;48.042;11.192;2023-03-04T00:53:37;95346.13;;;-1.88;100.00
36828;BME280;22766;48.042;11.192;2023-03-04T00:56:04;95360.56;;;-1.90;100.00
36828;BME280;22766;48.042;11.192;2023-03-04T00:58:31;95352.97;;;-1.90;100.00
36828;BME280;22766;48.042;11.192;2023-03-04T01:00:58;95354.69;;;-1.90;100.00
36828;BME280;22766;48.042;11.192;2023-03-04T01:03:24;95350.22;;;-1.85;100.00
36828;BME280;22766;48.042;11.192;2023-03-04T01:05:52;95348.56;;;-1.86;100.00
36828;BME280;22766;48.042;11.192;2023-03-04T01:08:19;95344.66;;;-1.74;100.00
36828;BME280;22766;48.042;11.192;2023-03-04T01:10:45;95343.56;;;-1.69;100.00
36828;BME280;22766;48.042;11.192;2023-03-04T01:13:14;95338.53;;;-1.52;100.00
36828;BME280;22766;48.042;11.192;2023-03-04T01:15:42;95335.63;;;-1.44;100.00
36828;BME280;22766;48.042;11.192;2023-03-04T01:18:09;95340.13;;;-1.49;100.00
36828;BME280;22766;48.042;11.192;2023-03-04T01:20:36;95340.94;;;-1.49;100.00
36828;BME280;22766;48.042;11.192;2023-03-04T01:23:02;95331.00;;;-1.53;100.00
36828;BME280;22766;48.042;11.192;2023-03-04T01:25:29;95328.63;;;-1.56;100.00
36828;BME280;22766;48.042;11.192;2023-03-04T01:27:57;95328.47;;;-1.53;100.00
36828;BME280;22766;48.042;11.192;2023-03-04T01:30:24;95326.84;;;-1.54;100.00
36828;BME280;22766;48.042;11.192;2023-03-04T01:32:50;95329.84;;;-1.63;100.00
36828;BME280;22766;48.042;11.192;2023-03-04T01:35:17;95321.41;;;-1.64;100.00
36828;BME280;22766;48.042;11.192;2023-03-04T01:37:44;95318.81;;;-1.62;100.00
36828;BME280;22766;48.042;11.192;2023-03-04T01:40:12;95319.63;;;-1.62;100.00
36828;BME280;22766;48.042;11.192;2023-03-04T01:42:39;95323.66;;;-1.58;100.00
36828;BME280;22766;48.042;11.192;2023-03-04T01:45:09;95320.81;;;-1.52;100.00
36828;BME280;22766;48.042;11.192;2023-03-04T01:47:38;95318.97;;;-1.48;100.00
36828;BME280;22766;48.042;11.192;2023-03-04T01:50:10;95315.53;;;-1.64;100.00
36828;BME280;22766;48.042;11.192;2023-03-04T01:52:42;95308.88;;;-1.67;100.00
36828;BME280;22766;48.042;11.192;2023-03-04T01:55:18;95303.31;;;-1.73;100.00
36828;BME280;22766;48.042;11.192;2023-03-04T01:57:46;95306.50;;;-1.70;100.00
36828;BME280;22766;48.042;11.192;2023-03-04T02:00:31;95300.16;;;-1.78;100.00
36828;BME280;22766;48.042;11.192;2023-03-04T02:03:01;95302.84;;;-1.81;100.00
36828;BME280;22766;48.042;11.192;2023-03-04T02:05:29;95296.00;;;-1.79;100.00
36828;BME280;22766;48.042;11.192;2023-03-04T02:07:57;95294.56;;;-1.85;100.00
36828;BME280;22766;48.042;11.192;2023-03-04T02:10:24;95297.22;;;-1.88;100.00
36828;BME280;22766;48.042;11.192;2023-03-04T02:12:51;95295.31;;;-1.83;100.00
36828;BME280;22766;48.042;11.192;2023-03-04T02:15:18;95295.09;;;-1.78;100.00
36828;BME280;22766;48.042;11.192;2023-03-04T02:17:45;95296.06;;;-1.81;100.00
36828;BME280;22766;48.042;11.192;2023-03-04T02:23:21;95287.72;;;-1.83;100.00
36828;BME280;22766;48.042;11.192;2023-03-04T02:28:40;95280.50;;;-1.91;100.00
36828;BME280;22766;48.042;11.192;2023-03-04T02:31:23;95283.16;;;-1.94;100.00
36828;BME280;22766;48.042;11.192;2023-03-04T02:33:51;95280.78;;;-1.97;100.00
36828;BME280;22766;48.042;11.192;2023-03-04T02:36:20;95282.41;;;-1.96;100.00
36828;BME280;22766;48.042;11.192;2023-03-04T02:38:51;95282.63;;;-2.00;100.00
36828;BME280;22766;48.042;11.192;2023-03-04T02:41:23;95283.47;;;-2.00;100.00
36828;BME280;22766;48.042;11.192;2023-03-04T02:43:51;95286.84;;;-2.01;100.00
36828;BME280;22766;48.042;11.192;2023-03-04T02:46:19;95279.16;;;-1.98;100.00
36828;BME280;22766;48.042;11.192;2023-03-04T02:48:46;95290.06;;;-1.97;100.00
36828;BME280;22766;48.042;11.192;2023-03-04T02:51:12;95292.50;;;-1.96;100.00
36828;BME280;22766;48.042;11.192;2023-03-04T02:53:39;95289.78;;;-1.91;100.00
36828;BME280;22766;48.042;11.192;2023-03-04T02:56:06;95288.09;;;-1.91;100.00
36828;BME280;22766;48.042;11.192;2023-03-04T02:58:35;95282.19;;;-1.91;100.00
36828;BME280;22766;48.042;11.192;2023-03-04T03:01:05;95289.03;;;-1.93;100.00
36828;BME280;22766;48.042;11.192;2023-03-04T03:03:32;95276.53;;;-1.96;100.00
36828;BME280;22766;48.042;11.192;2023-03-04T03:05:58;95281.81;;;-2.01;100.00
36828;BME280;22766;48.042;11.192;2023-03-04T03:08:25;95281.53;;;-1.95;100.00
36828;BME280;22766;48.042;11.192;2023-03-04T03:10:53;95283.16;;;-1.94;100.00
36828;BME280;22766;48.042;11.192;2023-03-04T03:13:21;95287.47;;;-1.96;100.00
36828;BME280;22766;48.042;11.192;2023-03-04T03:15:47;95279.44;;;-2.04;100.00
36828;BME280;22766;48.042;11.192;2023-03-04T03:18:16;95281.13;;;-2.04;100.00
36828;BME280;22766;48.042;11.192;2023-03-04T03:20:42;95280.81;;;-2.15;100.00
36828;BME280;22766;48.042;11.192;2023-03-04T03:23:09;95279.78;;;-2.11;100.00
36828;BME280;22766;48.042;11.192;2023-03-04T03:25:36;95279.09;;;-2.15;100.00
36828;BME280;22766;48.042;11.192;2023-03-04T03:28:04;95282.44;;;-2.14;100.00
36828;BME280;22766;48.042;11.192;2023-03-04T03:30:31;95281.06;;;-2.21;100.00
36828;BME280;22766;48.042;11.192;2023-03-04T03:32:58;95275.88;;;-2.18;100.00
36828;BME280;22766;48.042;11.192;2023-03-04T03:35:25;95281.75;;;-2.18;100.00
36828;BME280;22766;48.042;11.192;2023-03-04T03:37:52;95284.69;;;-2.08;100.00
36828;BME280;22766;48.042;11.192;2023-03-04T03:40:19;95291.00;;;-2.17;100.00
36828;BME280;22766;48.042;11.192;2023-03-04T03:42:46;95293.28;;;-2.12;100.00
36828;BME280;22766;48.042;11.192;2023-03-04T03:45:12;95291.66;;;-2.13;100.00
36828;BME280;22766;48.042;11.192;2023-03-04T03:47:39;95288.53;;;-2.00;100.00
36828;BME280;22766;48.042;11.192;2023-03-04T03:50:06;95298.28;;;-2.11;100.00
36828;BME280;22766;48.042;11.192;2023-03-04T03:52:33;95289.81;;;-2.10;100.00
36828;BME280;22766;48.042;11.192;2023-03-04T03:55:00;95290.38;;;-2.22;100.00
36828;BME280;22766;48.042;11.192;2023-03-04T03:57:28;95289.28;;;-2.35;100.00
36828;BME280;22766;48.042;11.192;2023-03-04T03:59:55;95290.31;;;-2.39;100.00
36828;BME280;22766;48.042;11.192;2023-03-04T04:02:22;95292.00;;;-2.39;100.00
36828;BME280;22766;48.042;11.192;2023-03-04T04:04:49;95289.44;;;-2.38;100.00
36828;BME280;22766;48.042;11.192;2023-03-04T04:07:16;95286.22;;;-2.41;100.00
36828;BME280;22766;48.042;11.192;2023-03-04T04:09:43;95286.34;;;-2.44;100.00
36828;BME280;22766;48.042;11.192;2023-03-04T04:12:13;95277.16;;;-2.47;100.00
36828;BME280;22766;48.042;11.192;2023-03-04T04:14:40;95281.16;;;-2.41;100.00
36828;BME280;22766;48.042;11.192;2023-03-04T04:17:06;95286.81;;;-2.36;100.00
36828;BME280;22766;48.042;11.192;2023-03-04T04:19:33;95283.34;;;-2.34;100.00
36828;BME280;22766;48.042;11.192;2023-03-04T04:22:01;95286.22;;;-2.41;100.00
36828;BME280;22766;48.042;11.192;2023-03-04T04:24:28;95283.69;;;-2.41;100.00
36828;BME280;22766;48.042;11.192;2023-03-04T04:26:55;95281.97;;;-2.41;100.00
36828;BME280;22766;48.042;11.192;2023-03-04T04:29:22;95286.06;;;-2.38;100.00
36828;BME280;22766;48.042;11.192;2023-03-04T04:31:49;95290.59;;;-2.26;100.00
36828;BME280;22766;48.042;11.192;2023-03-04T04:34:16;95281.63;;;-2.33;100.00
36828;BME280;22766;48.042;11.192;2023-03-04T04:36:43;95282.44;;;-2.33;100.00
36828;BME280;22766;48.042;11.192;2023-03-04T04:39:10;95296.25;;;-2.40;100.00
36828;BME280;22766;48.042;11.192;2023-03-04T04:41:40;95286.22;;;-2.41;100.00
36828;BME280;22766;48.042;11.192;2023-03-04T04:44:07;95286.25;;;-2.43;100.00
36828;BME280;22766;48.042;11.192;2023-03-04T04:46:35;95288.19;;;-2.48;100.00
36828;BME280;22766;48.042;11.192;2023-03-04T04:49:03;95288.94;;;-2.46;100.00
36828;BME280;22766;48.042;11.192;2023-03-04T04:51:30;95287.44;;;-2.50;100.00
36828;BME280;22766;48.042;11.192;2023-03-04T04:53:58;95289.22;;;-2.52;100.00
36828;BME280;22766;48.042;11.192;2023-03-04T04:56:25;95289.00;;;-2.47;100.00
36828;BME280;22766;48.042;11.192;2023-03-04T04:58:56;95294.00;;;-2.46;100.00
36828;BME280;22766;48.042;11.192;2023-03-04T05:01:23;95287.34;;;-2.48;100.00
36828;BME280;22766;48.042;11.192;2023-03-04T05:03:51;95286.59;;;-2.50;100.00
36828;BME280;22766;48.042;11.192;2023-03-04T05:06:22;95289.09;;;-2.49;100.00
36828;BME280;22766;48.042;11.192;2023-03-04T05:08:49;95283.22;;;-2.49;100.00
36828;BME280;22766;48.042;11.192;2023-03-04T05:11:17;95280.94;;;-2.55;100.00
36828;BME280;22766;48.042;11.192;2023-03-04T05:13:45;95286.00;;;-2.55;100.00
36828;BME280;22766;48.042;11.192;2023-03-04T05:16:12;95285.31;;;-2.59;100.00
36828;BME280;22766;48.042;11.192;2023-03-04T05:18:40;95287.69;;;-2.56;100.00
36828;BME280;22766;48.042;11.192;2023-03-04T05:21:07;95281.13;;;-2.60;100.00
36828;BME280;22766;48.042;11.192;2023-03-04T05:23:36;95283.63;;;-2.58;100.00
36828;BME280;22766;48.042;11.192;2023-03-04T05:26:05;95284.56;;;-2.61;100.00
36828;BME280;22766;48.042;11.192;2023-03-04T05:28:33;95285.50;;;-2.63;100.00
36828;BME280;22766;48.042;11.192;2023-03-04T05:31:00;95289.69;;;-2.62;100.00
36828;BME280;22766;48.042;11.192;2023-03-04T05:33:27;95284.06;;;-2.69;100.00
36828;BME280;22766;48.042;11.192;2023-03-04T05:35:54;95279.09;;;-2.70;100.00
36828;BME280;22766;48.042;11.192;2023-03-04T05:38:21;95287.44;;;-2.68;100.00
36828;BME280;22766;48.042;11.192;2023-03-04T05:40:48;95287.09;;;-2.61;100.00
36828;BME280;22766;48.042;11.192;2023-03-04T05:43:15;95284.00;;;-2.67;100.00
36828;BME280;22766;48.042;11.192;2023-03-04T05:45:42;95290.72;;;-2.66;100.00
36828;BME280;22766;48.042;11.192;2023-03-04T05:48:08;95286.78;;;-2.73;100.00
36828;BME280;22766;48.042;11.192;2023-03-04T05:50:35;95287.06;;;-2.79;100.00
36828;BME280;22766;48.042;11.192;2023-03-04T05:53:02;95288.16;;;-2.85;100.00
36828;BME280;22766;48.042;11.192;2023-03-04T05:55:28;95288.50;;;-2.93;100.00
36828;BME280;22766;48.042;11.192;2023-03-04T05:57:56;95292.97;;;-2.99;100.00
36828;BME280;22766;48.042;11.192;2023-03-04T06:00:23;95287.91;;;-2.99;100.00
36828;BME280;22766;48.042;11.192;2023-03-04T06:02:50;95288.84;;;-3.02;100.00
36828;BME280;22766;48.042;11.192;2023-03-04T06:05:17;95292.28;;;-3.03;100.00
36828;BME280;22766;48.042;11.192;2023-03-04T06:07:44;95293.09;;;-3.02;100.00
36828;BME280;22766;48.042;11.192;2023-03-04T06:10:13;95304.75;;;-3.00;100.00
36828;BME280;22766;48.042;11.192;2023-03-04T06:12:40;95293.09;;;-3.02;100.00
36828;BME280;22766;48.042;11.192;2023-03-04T06:15:08;95305.66;;;-3.01;100.00
36828;BME280;22766;48.042;11.192;2023-03-04T06:17:37;95303.00;;;-2.98;100.00
36828;BME280;22766;48.042;11.192;2023-03-04T06:20:09;95306.09;;;-2.91;100.00
36828;BME280;22766;48.042;11.192;2023-03-04T06:22:36;95311.94;;;-2.91;100.00
36828;BME280;22766;48.042;11.192;2023-03-04T06:25:03;95321.53;;;-2.78;100.00
36828;BME280;22766;48.042;11.192;2023-03-04T06:27:30;95318.75;;;-2.72;100.00
36828;BME280;22766;48.042;11.192;2023-03-04T06:29:56;95325.34;;;-2.50;100.00
36828;BME280;22766;48.042;11.192;2023-03-04T06:32:23;95326.38;;;-2.35;100.00
36828;BME280;22766;48.042;11.192;2023-03-04T06:34:50;95332.88;;;-2.30;100.00
36828;BME280;22766;48.042;11.192;2023-03-04T06:37:17;95324.47;;;-2.30;100.00
36828;BME280;22766;48.042;11.192;2023-03-04T06:39:44;95328.09;;;-2.36;100.00
36828;BME280;22766;48.042;11.192;2023-03-04T06:42:11;95331.44;;;-2.35;100.00
36828;BME280;22766;48.042;11.192;2023-03-04T06:44:38;95332.13;;;-2.32;100.00
36828;BME280;22766;48.042;11.192;2023-03-04T06:47:05;95325.75;;;-2.22;100.00
36828;BME280;22766;48.042;11.192;2023-03-04T06:49:32;95329.03;;;-2.20;100.00
36828;BME280;22766;48.042;11.192;2023-03-04T06:51:59;95330.63;;;-2.17;100.00
36828;BME280;22766;48.042;11.192;2023-03-04T06:54:26;95323.88;;;-2.17;100.00
36828;BME280;22766;48.042;11.192;2023-03-04T06:56:52;95325.44;;;-2.14;100.00
36828;BME280;22766;48.042;11.192;2023-03-04T06:59:19;95325.31;;;-2.11;100.00
36828;BME280;22766;48.042;11.192;2023-03-04T07:01:46;95327.59;;;-2.07;100.00
36828;BME280;22766;48.042;11.192;2023-03-04T07:04:13;95328.84;;;-1.97;100.00
36828;BME280;22766;48.042;11.192;2023-03-04T07:06:40;95336.28;;;-1.94;100.00
36828;BME280;22766;48.042;11.192;2023-03-04T07:09:06;95340.78;;;-1.81;100.00
36828;BME280;22766;48.042;11.192;2023-03-04T07:11:33;95336.28;;;-1.75;100.00
36828;BME280;22766;48.042;11.192;2023-03-04T07:14:00;95332.56;;;-1.68;100.00
36828;BME280;22766;48.042;11.192;2023-03-04T07:16:27;95337.06;;;-1.56;100.00
36828;BME280;22766;48.042;11.192;2023-03-04T07:18:53;95335.63;;;-1.44;100.00
36828;BME280;22766;48.042;11.192;2023-03-04T07:21:20;95344.91;;;-1.26;100.00
36828;BME280;22766;48.042;11.192;2023-03-04T07:23:47;95345.88;;;-1.12;100.00
36828;BME280;22766;48.042;11.192;2023-03-04T07:26:14;95343.63;;;-1.01;100.00
36828;BME280;22766;48.042;11.192;2023-03-04T07:28:40;95353.47;;;-1.12;100.00
36828;BME280;22766;48.042;11.192;2023-03-04T07:31:12;95345.66;;;-1.07;100.00
36828;BME280;22766;48.042;11.192;2023-03-04T07:33:41;95349.78;;;-1.05;100.00
36828;BME280;22766;48.042;11.192;2023-03-04T07:36:08;95356.66;;;-0.74;100.00
36828;BME280;22766;48.042;11.192;2023-03-04T07:38:35;95354.94;;;-0.73;100.00
36828;BME280;22766;48.042;11.192;2023-03-04T07:41:02;95351.16;;;-0.65;100.00
36828;BME280;22766;48.042;11.192;2023-03-04T07:43:28;95354.84;;;-0.55;100.00
36828;BME280;22766;48.042;11.192;2023-03-04T07:46:00;95352.34;;;-0.39;100.00
36828;BME280;22766;48.042;11.192;2023-03-04T07:48:27;95350.69;;;-0.23;100.00
36828;BME280;22766;48.042;11.192;2023-03-04T07:53:40;95365.06;;;0.25;100.00
36828;BME280;22766;48.042;11.192;2023-03-04T07:56:10;95369.69;;;0.48;100.00
36828;BME280;22766;48.042;11.192;2023-03-04T07:58:38;95364.16;;;0.57;100.00
36828;BME280;22766;48.042;11.192;2023-03-04T08:01:12;95372.91;;;0.51;100.00
36828;BME280;22766;48.042;11.192;2023-03-04T08:03:39;95380.13;;;0.43;100.00
36828;BME280;22766;48.042;11.192;2023-03-04T08:06:08;95376.34;;;0.35;100.00
36828;BME280;22766;48.042;11.192;2023-03-04T08:08:35;95382.16;;;0.52;100.00
36828;BME280;22766;48.042;11.192;2023-03-04T08:11:07;95376.66;;;0.60;100.00
36828;BME280;22766;48.042;11.192;2023-03-04T08:13:34;95378.50;;;0.87;100.00
36828;BME280;22766;48.042;11.192;2023-03-04T08:16:02;95370.50;;;1.09;100.00
36828;BME280;22766;48.042;11.192;2023-03-04T08:18:28;95379.88;;;1.23;100.00
36828;BME280;22766;48.042;11.192;2023-03-04T08:20:55;95370.34;;;1.26;100.00
36828;BME280;22766;48.042;11.192;2023-03-04T08:23:23;95374.28;;;1.32;100.00
36828;BME280;22766;48.042;11.192;2023-03-04T08:25:50;95377.47;;;1.35;100.00
36828;BME280;22766;48.042;11.192;2023-03-04T08:28:17;95373.69;;;1.56;100.00
36828;BME280;22766;48.042;11.192;2023-03-04T08:30:43;95381.13;;;2.02;100.00
36828;BME280;22766;48.042;11.192;2023-03-04T08:33:10;95378.50;;;2.31;100.00
36828;BME280;22766;48.042;11.192;2023-03-04T08:35:38;95378.03;;;2.25;100.00
36828;BME280;22766;48.042;11.192;2023-03-04T08:38:06;95385.56;;;2.40;100.00
36828;BME280;22766;48.042;11.192;2023-03-04T08:40:32;95375.72;;;2.48;100.00
36828;BME280;22766;48.042;11.192;2023-03-04T08:42:59;95377.59;;;2.59;100.00
36828;BME280;22766;48.042;11.192;2023-03-04T08:45:26;95373.22;;;2.88;100.00
36828;BME280;22766;48.042;11.192;2023-03-04T08:47:53;95360.19;;;2.92;100.00
36828;BME280;22766;48.042;11.192;2023-03-04T08:50:19;95375.72;;;3.02;100.00
36828;BME280;22766;48.042;11.192;2023-03-04T08:52:48;95372.94;;;3.31;100.00
36828;BME280;22766;48.042;11.192;2023-03-04T08:55:15;95370.19;;;3.59;100.00
36828;BME280;22766;48.042;11.192;2023-03-04T08:57:41;95369.50;;;3.83;100.00
36828;BME280;22766;48.042;11.192;2023-03-04T09:00:09;95368.06;;;3.66;100.00
36828;BME280;22766;48.042;11.192;2023-03-04T09:02:36;95372.03;;;3.95;100.00
36828;BME280;22766;48.042;11.192;2023-03-04T09:05:03;95371.84;;;3.98;100.00
36828;BME280;22766;48.042;11.192;2023-03-04T09:07:30;95369.25;;;4.23;100.00
36828;BME280;22766;48.042;11.192;2023-03-04T09:09:56;95367.78;;;4.68;100.00
36828;BME280;22766;48.042;11.192;2023-03-04T09:12:23;95376.69;;;4.99;100.00
36828;BME280;22766;48.042;11.192;2023-03-04T09:14:50;95376.72;;;5.33;100.00
36828;BME280;22766;48.042;11.192;2023-03-04T09:17:35;95370.78;;;5.09;100.00
36828;BME280;22766;48.042;11.192;2023-03-04T09:20:02;95360.00;;;5.62;100.00
36828;BME280;22766;48.042;11.192;2023-03-04T09:22:30;95367.13;;;5.70;100.00
36828;BME280;22766;48.042;11.192;2023-03-04T09:24:57;95367.03;;;5.83;100.00
36828;BME280;22766;48.042;11.192;2023-03-04T09:27:24;95358.94;;;5.89;100.00
36828;BME280;22766;48.042;11.192;2023-03-04T09:29:50;95354.25;;;5.94;100.00
36828;BME280;22766;48.042;11.192;2023-03-04T09:32:17;95355.56;;;6.32;100.00
36828;BME280;22766;48.042;11.192;2023-03-04T09:34:44;95351.69;;;7.03;100.00
36828;BME280;22766;48.042;11.192;2023-03-04T09:37:11;95359.09;;;6.74;100.00
36828;BME280;22766;48.042;11.192;2023-03-04T09:39:38;95351.91;;;7.00;100.00
36828;BME280;22766;48.042;11.192;2023-03-04T09:42:06;95352.75;;;7.21;100.00
36828;BME280;22766;48.042;11.192;2023-03-04T09:44:38;95355.91;;;8.37;100.00
36828;BME280;22766;48.042;11.192;2023-03-04T09:47:10;95351.81;;;8.84;91.19
36828;BME280;22766;48.042;11.192;2023-03-04T09:49:39;95354.72;;;9.09;82.76
36828;BME280;22766;48.042;11.192;2023-03-04T10:00:36;95354.97;;;10.56;72.01
36828;BME280;22766;48.042;11.192;2023-03-04T10:03:17;95349.91;;;10.91;63.45
36828;BME280;22766;48.042;11.192;2023-03-04T10:11:20;95344.97;;;9.97;61.05
36828;BME280;22766;48.042;11.192;2023-03-04T10:14:11;95344.94;;;10.16;60.25
36828;BME280;22766;48.042;11.192;2023-03-04T10:16:45;95338.78;;;10.64;63.20
36828;BME280;22766;48.042;11.192;2023-03-04T10:21:45;95330.66;;;11.03;63.37
36828;BME280;22766;48.042;11.192;2023-03-04T10:24:16;95334.13;;;11.47;55.83
36828;BME280;22766;48.042;11.192;2023-03-04T10:26:51;95324.94;;;11.00;53.22
36828;BME280;22766;48.042;11.192;2023-03-04T10:29:21;95328.78;;;11.49;55.84
36828;BME280;22766;48.042;11.192;2023-03-04T10:31:50;95323.28;;;11.26;51.76
36828;BME280;22766;48.042;11.192;2023-03-04T10:34:17;95323.19;;;11.36;52.07
36828;BME280;22766;48.042;11.192;2023-03-04T10:36:57;95324.75;;;11.89;54.27
36828;BME280;22766;48.042;11.192;2023-03-04T10:39:38;95332.13;;;12.36;50.16
36828;BME280;22766;48.042;11.192;2023-03-04T10:42:22;95321.00;;;12.09;49.33
36828;BME280;22766;48.042;11.192;2023-03-04T10:47:18;95318.34;;;12.01;51.51
36828;BME280;22766;48.042;11.192;2023-03-04T10:49:55;95310.72;;;13.25;48.50
36828;BME280;22766;48.042;11.192;2023-03-04T10:52:34;95305.72;;;13.64;46.81
36828;BME280;22766;48.042;11.192;2023-03-04T10:55:23;95309.69;;;13.02;45.17
36828;BME280;22766;48.042;11.192;2023-03-04T10:57:54;95311.53;;;13.34;44.25
36828;BME280;22766;48.042;11.192;2023-03-04T11:08:56;95298.97;;;15.48;40.57
36828;BME280;22766;48.042;11.192;2023-03-04T11:13:55;95294.19;;;15.60;40.62
36828;BME280;22766;48.042;11.192;2023-03-04T11:16:26;95295.75;;;15.69;42.49
36828;BME280;22766;48.042;11.192;2023-03-04T11:19:04;95294.75;;;15.25;41.22
36828;BME280;22766;48.042;11.192;2023-03-04T11:21:36;95289.47;;;15.78;38.18
36828;BME280;22766;48.042;11.192;2023-03-04T11:24:13;95292.69;;;15.12;39.26
36828;BME280;22766;48.042;11.192;2023-03-04T11:27:00;95291.72;;;14.60;39.43
36828;BME280;22766;48.042;11.192;2023-03-04T11:30:49;95285.81;;;14.27;40.87
36828;BME280;22766;48.042;11.192;2023-03-04T11:32:45;95282.41;;;14.96;41.65
36828;BME280;22766;48.042;11.192;2023-03-04T11:35:35;95286.50;;;15.81;39.44
36828;BME280;22766;48.042;11.192;2023-03-04T11:38:20;95284.84;;;16.17;38.10
36828;BME280;22766;48.042;11.192;2023-03-04T11:40:53;95280.88;;;16.79;37.48
36828;BME280;22766;48.042;11.192;2023-03-04T11:43:35;95282.88;;;17.13;37.17
36828;BME280;22766;48.042;11.192;2023-03-04T11:54:34;95273.84;;;15.78;38.58
36828;BME280;22766;48.042;11.192;2023-03-04T12:03:11;95275.44;;;15.19;39.46
36828;BME280;22766;48.042;11.192;2023-03-04T12:11:15;95258.28;;;15.33;39.04
36828;BME280;22766;48.042;11.192;2023-03-04T12:14:07;95255.97;;;15.75;37.72
36828;BME280;22766;48.042;11.192;2023-03-04T12:16:46;95250.78;;;16.62;37.36
36828;BME280;22766;48.042;11.192;2023-03-04T12:25:24;95250.47;;;15.10;38.95
36828;BME280;22766;48.042;11.192;2023-03-04T12:30:45;95248.44;;;12.93;43.50
36828;BME280;22766;48.042;11.192;2023-03-04T12:38:58;95223.72;;;11.99;45.51
36828;BME280;22766;48.042;11.192;2023-03-04T12:52:36;95205.31;;;15.26;40.38
36828;BME280;22766;48.042;11.192;2023-03-04T12:55:11;95207.06;;;16.14;38.93
36828;BME280;22766;48.042;11.192;2023-03-04T12:57:39;95200.84;;;15.71;37.77
36828;BME280;22766;48.042;11.192;2023-03-04T13:00:34;95200.97;;;15.93;38.48
36828;BME280;22766;48.042;11.192;2023-03-04T13:03:16;95198.19;;;14.82;38.48
36828;BME280;22766;48.042;11.192;2023-03-04T13:16:40;95178.94;;;16.74;36.93
36828;BME280;22766;48.042;11.192;2023-03-04T13:25:29;95162.34;;;18.20;35.20
36828;BME280;22766;48.042;11.192;2023-03-04T13:38:42;95163.38;;;17.30;34.08
36828;BME280;22766;48.042;11.192;2023-03-04T13:41:24;95164.34;;;17.50;33.41
36828;BME280;22766;48.042;11.192;2023-03-04T13:43:58;95170.59;;;16.14;34.76
36828;BME280;22766;48.042;11.192;2023-03-04T13:51:34;95171.25;;;15.35;38.27
36828;BME280;22766;48.042;11.192;2023-03-04T13:57:09;95153.75;;;15.96;36.95
36828;BME280;22766;48.042;11.192;2023-03-04T13:59:41;95155.81;;;15.19;37.19
36828;BME280;22766;48.042;11.192;2023-03-04T14:04:45;95146.59;;;16.19;36.20
36828;BME280;22766;48.042;11.192;2023-03-04T14:07:27;95153.44;;;16.05;36.79
36828;BME280;22766;48.042;11.192;2023-03-04T14:12:48;95148.34;;;16.62;35.67
36828;BME280;22766;48.042;11.192;2023-03-04T14:15:25;95142.88;;;17.82;34.08
36828;BME280;22766;48.042;11.192;2023-03-04T14:18:01;95136.78;;;17.13;33.80
36828;BME280;22766;48.042;11.192;2023-03-04T14:20:36;95139.63;;;17.25;34.85
36828;BME280;22766;48.042;11.192;2023-03-04T14:23:23;95134.53;;;17.38;34.21
36828;BME280;22766;48.042;11.192;2023-03-04T14:25:50;95128.56;;;18.66;32.78
36828;BME280;22766;48.042;11.192;2023-03-04T14:28:19;95128.59;;;18.99;32.90
36828;BME280;22766;48.042;11.192;2023-03-04T14:30:54;95129.19;;;18.94;32.89
36828;BME280;22766;48.042;11.192;2023-03-04T14:33:29;95126.78;;;17.23;33.76
36828;BME280;22766;48.042;11.192;2023-03-04T14:35:58;95131.28;;;18.38;33.31
36828;BME280;22766;48.042;11.192;2023-03-04T14:38:32;95133.25;;;17.83;33.13
36828;BME280;22766;48.042;11.192;2023-03-04T14:43:54;95120.06;;;17.35;35.09
36828;BME280;22766;48.042;11.192;2023-03-04T14:46:24;95119.00;;;17.85;34.13
36828;BME280;22766;48.042;11.192;2023-03-04T14:48:54;95115.72;;;17.77;33.90
36828;BME280;22766;48.042;11.192;2023-03-04T14:51:36;95120.03;;;17.91;33.98
36828;BME280;22766;48.042;11.192;2023-03-04T14:54:04;95119.25;;;17.35;34.79
36828;BME280;22766;48.042;11.192;2023-03-04T14:56:34;95122.81;;;16.78;34.78
36828;BME280;22766;48.042;11.192;2023-03-04T14:59:01;95116.47;;;16.66;34.82
36828;BME280;22766;48.042;11.192;2023-03-04T15:01:33;95120.53;;;16.19;35.68
36828;BME280;22766;48.042;11.192;2023-03-04T15:04:08;95115.13;;;15.99;35.68